createdAt,value
2023-01-03T00:00:33.090Z,12.60
2023-01-03T00:01:33.959Z,12.73
2023-01-03T00:02:33.122Z,12.72
2023-01-03T00:03:32.991Z,12.72
2023-01-03T00:04:33.029Z,12.57
2023-01-03T00:05:32.940Z,12.62
2023-01-03T00:06:32.929Z,12.61
2023-01-03T00:07:32.903Z,12.72
2023-01-03T00:08:32.918Z,12.64
2023-01-03T00:09:33.602Z,12.64
2023-01-03T00:10:32.885Z,12.61
2023-01-03T00:11:32.900Z,12.72
2023-01-03T00:12:32.886Z,12.67
2023-01-03T00:13:32.848Z,12.73
2023-01-03T00:14:32.855Z,12.72
2023-01-03T00:15:32.825Z,12.73
2023-01-03T00:16:32.833Z,12.73
2023-01-03T00:17:32.806Z,12.78
2023-01-03T00:18:33.803Z,12.79
2023-01-03T00:19:32.810Z,12.65
2023-01-03T00:20:33.784Z,12.60
2023-01-03T00:21:32.749Z,12.58
2023-01-03T00:22:33.791Z,12.55
2023-01-03T00:23:32.747Z,12.54
2023-01-03T00:24:32.746Z,12.60
2023-01-03T00:25:32.726Z,12.65
2023-01-03T00:26:32.720Z,12.60
2023-01-03T00:27:32.709Z,12.50
2023-01-03T00:28:32.791Z,12.53
2023-01-03T00:29:32.701Z,12.64
2023-01-03T00:30:32.764Z,12.65
2023-01-03T00:31:32.672Z,12.54
2023-01-03T00:32:33.620Z,12.50
2023-01-03T00:33:32.619Z,12.54
2023-01-03T00:34:33.608Z,12.62
2023-01-03T00:35:33.648Z,12.58
2023-01-03T00:36:32.600Z,12.53
2023-01-03T00:37:32.601Z,12.40
2023-01-03T00:38:32.553Z,12.45
2023-01-03T00:39:33.553Z,12.45
2023-01-03T00:40:32.558Z,12.45
2023-01-03T00:41:32.549Z,12.49
2023-01-03T00:42:33.563Z,12.39
2023-01-03T00:43:32.531Z,12.37
2023-01-03T00:44:33.515Z,12.39
2023-01-03T00:45:35.478Z,12.36
2023-01-03T00:46:33.534Z,12.40
2023-01-03T00:47:32.485Z,12.39
2023-01-03T00:48:33.484Z,12.32
2023-01-03T00:49:32.448Z,12.36
2023-01-03T00:50:32.423Z,12.27
2023-01-03T00:51:33.433Z,12.29
2023-01-03T00:52:32.484Z,12.29
2023-01-03T00:53:40.041Z,12.42
2023-01-03T00:54:32.399Z,12.29
2023-01-03T00:55:32.366Z,12.27
2023-01-03T00:56:32.372Z,12.24
2023-01-03T00:57:32.429Z,12.04
2023-01-03T00:58:33.339Z,12.10
2023-01-03T00:59:32.325Z,12.10
2023-01-03T01:00:32.354Z,12.10
2023-01-03T01:01:39.189Z,12.09
2023-01-03T01:02:33.592Z,12.04
2023-01-03T01:03:32.390Z,11.95
2023-01-03T01:04:32.302Z,12.09
2023-01-03T01:05:32.277Z,12.04
2023-01-03T01:06:32.274Z,12.09
2023-01-03T01:07:32.308Z,11.95
2023-01-03T01:08:32.237Z,11.94
2023-01-03T01:09:32.228Z,11.90
2023-01-03T01:10:33.111Z,11.86
2023-01-03T01:11:32.206Z,11.95
2023-01-03T01:12:32.215Z,11.95
2023-01-03T01:13:32.236Z,11.87
2023-01-03T01:14:32.232Z,11.81
2023-01-03T01:15:33.206Z,11.70
2023-01-03T01:16:32.309Z,11.68
2023-01-03T01:17:32.140Z,11.65
2023-01-03T01:18:32.157Z,11.80
2023-01-03T01:19:33.073Z,11.72
2023-01-03T01:20:32.120Z,11.65
2023-01-03T01:21:33.092Z,11.65
2023-01-03T01:22:32.113Z,11.80
2023-01-03T01:23:33.057Z,11.75
2023-01-03T01:24:32.091Z,11.87
2023-01-03T01:25:32.031Z,11.87
2023-01-03T01:26:32.048Z,11.83
2023-01-03T01:27:32.055Z,11.80
2023-01-03T01:28:32.017Z,11.78
2023-01-03T01:29:32.004Z,11.81
2023-01-03T01:30:31.982Z,11.78
2023-01-03T01:31:32.027Z,11.80
2023-01-03T01:32:32.009Z,11.81
2023-01-03T01:33:31.987Z,11.75
2023-01-03T01:34:31.953Z,11.72
2023-01-03T01:35:31.970Z,11.68
2023-01-03T01:36:31.932Z,11.68
2023-01-03T01:37:31.910Z,11.73
2023-01-03T01:38:31.964Z,11.75
2023-01-03T01:39:31.937Z,11.72
2023-01-03T01:40:32.900Z,11.66
2023-01-03T01:41:31.868Z,11.77
2023-01-03T01:42:31.885Z,11.80
2023-01-03T01:43:31.838Z,11.77
2023-01-03T01:44:31.848Z,11.72
2023-01-03T01:45:31.882Z,11.70
2023-01-03T01:46:32.908Z,11.68
2023-01-03T01:47:32.808Z,11.65
2023-01-03T01:48:31.872Z,11.68
2023-01-03T01:49:31.776Z,11.69
2023-01-03T01:50:32.773Z,11.75
2023-01-03T01:51:32.792Z,11.77
2023-01-03T01:52:31.771Z,11.72
2023-01-03T01:53:32.817Z,11.75
2023-01-03T01:54:31.726Z,11.83
2023-01-03T01:55:31.715Z,11.87
2023-01-03T01:56:32.712Z,11.81
2023-01-03T01:57:32.707Z,11.81
2023-01-03T01:58:31.709Z,11.81
2023-01-03T01:59:31.662Z,11.83
2023-01-03T02:00:32.650Z,11.88
2023-01-03T02:01:31.775Z,11.88
2023-01-03T02:02:31.882Z,11.84
2023-01-03T02:03:31.721Z,11.90
2023-01-03T02:04:32.633Z,11.80
2023-01-03T02:05:31.592Z,11.75
2023-01-03T02:06:31.580Z,11.80
2023-01-03T02:07:31.580Z,11.72
2023-01-03T02:08:31.610Z,11.77
2023-01-03T02:09:31.564Z,11.77
2023-01-03T02:10:31.597Z,11.80
2023-01-03T02:11:31.540Z,11.77
2023-01-03T02:12:31.517Z,11.84
2023-01-03T02:13:32.522Z,11.81
2023-01-03T02:14:31.525Z,11.88
2023-01-03T02:15:31.502Z,11.83
2023-01-03T02:16:31.576Z,11.88
2023-01-03T02:17:31.461Z,11.88
2023-01-03T02:18:31.470Z,11.81
2023-01-03T02:19:31.465Z,11.90
2023-01-03T02:20:32.090Z,11.90
2023-01-03T02:21:31.430Z,11.99
2023-01-03T02:22:31.437Z,12.00
2023-01-03T02:23:31.420Z,11.87
2023-01-03T02:24:31.384Z,11.88
2023-01-03T02:25:31.402Z,11.87
2023-01-03T02:26:32.074Z,11.73
2023-01-03T02:27:31.359Z,11.78
2023-01-03T02:28:31.380Z,11.80
2023-01-03T02:29:32.348Z,11.73
2023-01-03T02:30:32.339Z,11.80
2023-01-03T02:31:32.357Z,11.60
2023-01-03T02:32:32.322Z,11.65
2023-01-03T02:33:31.305Z,11.65
2023-01-03T02:34:32.283Z,11.68
2023-01-03T02:35:32.265Z,11.66
2023-01-03T02:36:31.324Z,11.75
2023-01-03T02:37:31.249Z,11.77
2023-01-03T02:38:31.241Z,11.88
2023-01-03T02:39:31.233Z,11.84
2023-01-03T02:40:31.203Z,11.90
2023-01-03T02:41:31.223Z,11.83
2023-01-03T02:42:31.212Z,11.84
2023-01-03T02:43:32.180Z,11.73
2023-01-03T02:44:32.193Z,11.77
2023-01-03T02:45:32.141Z,11.62
2023-01-03T02:46:31.193Z,11.65
2023-01-03T02:47:32.053Z,11.73
2023-01-03T02:48:31.152Z,11.73
2023-01-03T02:49:31.160Z,11.62
2023-01-03T02:50:31.115Z,11.68
2023-01-03T02:51:31.130Z,11.63
2023-01-03T02:52:32.128Z,11.66
2023-01-03T02:53:31.101Z,11.68
2023-01-03T02:54:31.062Z,11.66
2023-01-03T02:55:31.059Z,11.63
2023-01-03T02:56:31.037Z,11.63
2023-01-03T02:57:31.064Z,11.62
2023-01-03T02:58:31.009Z,11.65
2023-01-03T02:59:30.997Z,11.60
2023-01-03T03:00:31.019Z,11.69
2023-01-03T03:01:31.080Z,11.57
2023-01-03T03:02:31.254Z,11.55
2023-01-03T03:03:31.031Z,11.60
2023-01-03T03:04:30.984Z,11.59
2023-01-03T03:05:30.945Z,11.60
2023-01-03T03:06:30.950Z,11.57
2023-01-03T03:07:31.944Z,11.59
2023-01-03T03:08:30.920Z,11.63
2023-01-03T03:09:30.924Z,11.69
2023-01-03T03:10:30.874Z,11.65
2023-01-03T03:11:31.556Z,11.69
2023-01-03T03:12:30.855Z,11.68
2023-01-03T03:13:31.887Z,11.63
2023-01-03T03:14:31.535Z,11.65
2023-01-03T03:15:31.841Z,11.63
2023-01-03T03:16:30.856Z,11.52
2023-01-03T03:17:30.808Z,11.50
2023-01-03T03:18:31.536Z,11.45
2023-01-03T03:19:30.803Z,11.55
2023-01-03T03:20:31.785Z,11.45
2023-01-03T03:21:30.753Z,11.37
2023-01-03T03:22:30.750Z,11.37
2023-01-03T03:23:31.525Z,11.25
2023-01-03T03:24:30.781Z,11.19
2023-01-03T03:25:30.730Z,11.30
2023-01-03T03:26:31.709Z,11.26
2023-01-03T03:27:30.701Z,11.29
2023-01-03T03:28:31.702Z,11.25
2023-01-03T03:29:31.689Z,11.33
2023-01-03T03:30:30.684Z,11.22
2023-01-03T03:31:30.742Z,11.18
2023-01-03T03:32:30.631Z,11.15
2023-01-03T03:33:30.629Z,11.29
2023-01-03T03:34:31.621Z,11.30
2023-01-03T03:35:30.637Z,11.29
2023-01-03T03:36:31.609Z,11.25
2023-01-03T03:37:31.566Z,11.19
2023-01-03T03:38:30.580Z,11.22
2023-01-03T03:39:30.549Z,11.25
2023-01-03T03:40:30.649Z,11.18
2023-01-03T03:41:30.580Z,11.23
2023-01-03T03:42:30.587Z,11.17
2023-01-03T03:43:31.502Z,11.02
2023-01-03T03:44:30.491Z,11.22
2023-01-03T03:45:30.496Z,11.19
2023-01-03T03:46:30.504Z,11.15
2023-01-03T03:47:30.471Z,11.22
2023-01-03T03:48:30.476Z,11.27
2023-01-03T03:49:30.471Z,11.22
2023-01-03T03:50:30.436Z,11.25
2023-01-03T03:51:30.432Z,11.30
2023-01-03T03:52:30.457Z,11.26
2023-01-03T03:53:30.415Z,11.35
2023-01-03T03:54:30.412Z,11.35
2023-01-03T03:55:30.424Z,11.32
2023-01-03T03:56:30.539Z,11.36
2023-01-03T03:57:30.368Z,11.41
2023-01-03T03:58:30.351Z,11.45
2023-01-03T03:59:30.348Z,11.41
2023-01-03T04:00:30.359Z,11.44
2023-01-03T04:01:30.425Z,11.41
2023-01-03T04:02:30.413Z,11.30
2023-01-03T04:03:30.442Z,11.26
2023-01-03T04:04:31.300Z,11.32
2023-01-03T04:05:30.282Z,11.27
2023-01-03T04:06:30.278Z,11.23
2023-01-03T04:07:30.278Z,11.43
2023-01-03T04:08:30.250Z,11.29
2023-01-03T04:09:31.247Z,11.40
2023-01-03T04:10:37.184Z,11.22
2023-01-03T04:11:31.211Z,11.26
2023-01-03T04:12:30.198Z,11.22
2023-01-03T04:13:30.205Z,11.18
2023-01-03T04:14:31.192Z,11.19
2023-01-03T04:15:30.174Z,11.19
2023-01-03T04:16:30.282Z,11.00
2023-01-03T04:17:30.161Z,10.93
2023-01-03T04:18:30.131Z,10.93
2023-01-03T04:19:30.125Z,10.86
2023-01-03T04:20:31.111Z,10.82
2023-01-03T04:21:31.111Z,10.93
2023-01-03T04:22:31.122Z,10.92
2023-01-03T04:23:30.119Z,10.90
2023-01-03T04:24:30.050Z,10.97
2023-01-03T04:25:30.086Z,10.94
2023-01-03T04:26:30.051Z,10.94
2023-01-03T04:27:31.039Z,10.89
2023-01-03T04:28:30.039Z,10.89
2023-01-03T04:29:34.055Z,10.93
2023-01-03T04:30:31.000Z,10.97
2023-01-03T04:31:30.542Z,10.94
2023-01-03T04:32:30.963Z,11.04
2023-01-03T04:33:29.959Z,11.11
2023-01-03T04:34:29.974Z,11.04
2023-01-03T04:35:30.009Z,11.02
2023-01-03T04:36:29.988Z,11.08
2023-01-03T04:37:29.933Z,11.02
2023-01-03T04:38:30.517Z,11.10
2023-01-03T04:39:29.895Z,11.12
2023-01-03T04:40:29.904Z,11.14
2023-01-03T04:41:29.896Z,11.15
2023-01-03T04:42:29.899Z,11.18
2023-01-03T04:43:29.841Z,11.19
2023-01-03T04:44:29.872Z,11.22
2023-01-03T04:45:29.863Z,11.18
2023-01-03T04:46:29.825Z,11.14
2023-01-03T04:47:29.823Z,11.11
2023-01-03T04:48:29.817Z,11.19
2023-01-03T04:49:29.780Z,11.17
2023-01-03T04:50:29.772Z,11.22
2023-01-03T04:51:29.780Z,11.23
2023-01-03T04:52:29.784Z,11.25
2023-01-03T04:53:29.727Z,11.08
2023-01-03T04:54:29.753Z,11.08
2023-01-03T04:55:29.769Z,11.08
2023-01-03T04:56:29.727Z,11.08
2023-01-03T04:57:30.719Z,11.14
2023-01-03T04:58:29.707Z,11.18
2023-01-03T04:59:29.683Z,11.15
2023-01-03T05:00:29.712Z,11.08
2023-01-03T05:01:29.946Z,11.05
2023-01-03T05:02:29.730Z,11.07
2023-01-03T05:03:29.676Z,11.15
2023-01-03T05:04:30.676Z,11.12
2023-01-03T05:05:30.602Z,11.08
2023-01-03T05:06:30.608Z,10.97
2023-01-03T05:07:29.620Z,10.93
2023-01-03T05:08:29.564Z,10.96
2023-01-03T05:09:29.582Z,11.10
2023-01-03T05:10:30.554Z,11.04
2023-01-03T05:11:29.529Z,11.22
2023-01-03T05:12:30.560Z,11.19
2023-01-03T05:13:29.556Z,11.17
2023-01-03T05:14:29.518Z,11.02
2023-01-03T05:15:29.528Z,11.19
2023-01-03T05:16:29.584Z,11.11
2023-01-03T05:17:29.512Z,11.10
2023-01-03T05:18:29.460Z,11.14
2023-01-03T05:19:29.478Z,11.22
2023-01-03T05:20:30.487Z,11.22
2023-01-03T05:21:30.418Z,11.30
2023-01-03T05:22:29.419Z,11.30
2023-01-03T05:23:29.418Z,11.25
2023-01-03T05:24:29.404Z,11.37
2023-01-03T05:25:30.409Z,11.29
2023-01-03T05:26:29.400Z,11.33
2023-01-03T05:27:29.372Z,11.43
2023-01-03T05:28:29.358Z,11.40
2023-01-03T05:29:29.350Z,11.43
2023-01-03T05:30:29.347Z,11.43
2023-01-03T05:31:30.396Z,11.40
2023-01-03T05:32:29.350Z,11.48
2023-01-03T05:33:30.001Z,11.43
2023-01-03T05:34:30.322Z,11.59
2023-01-03T05:35:29.292Z,11.47
2023-01-03T05:36:29.951Z,11.47
2023-01-03T05:37:29.264Z,11.45
2023-01-03T05:38:29.255Z,11.44
2023-01-03T05:39:29.249Z,11.40
2023-01-03T05:40:29.276Z,11.30
2023-01-03T05:41:29.198Z,11.26
2023-01-03T05:42:30.251Z,11.25
2023-01-03T05:43:29.178Z,11.40
2023-01-03T05:44:30.187Z,11.32
2023-01-03T05:45:29.222Z,11.40
2023-01-03T05:46:29.225Z,11.35
2023-01-03T05:47:29.139Z,11.40
2023-01-03T05:48:29.143Z,11.40
2023-01-03T05:49:29.131Z,11.44
2023-01-03T05:50:29.116Z,11.40
2023-01-03T05:51:30.116Z,11.35
2023-01-03T05:52:29.111Z,11.37
2023-01-03T05:53:29.089Z,11.45
2023-01-03T05:54:29.087Z,11.44
2023-01-03T05:55:29.063Z,11.45
2023-01-03T05:56:29.063Z,11.47
2023-01-03T05:57:35.101Z,11.43
2023-01-03T05:58:30.031Z,11.25
2023-01-03T05:59:30.014Z,11.37
2023-01-03T06:00:28.993Z,11.41
2023-01-03T06:01:29.121Z,11.44
2023-01-03T06:02:29.012Z,11.48
2023-01-03T06:03:29.053Z,11.52
2023-01-03T06:04:29.092Z,11.54
2023-01-03T06:05:28.981Z,11.50
2023-01-03T06:06:29.439Z,11.59
2023-01-03T06:07:28.930Z,11.54
2023-01-03T06:08:28.924Z,11.45
2023-01-03T06:09:29.968Z,11.47
2023-01-03T06:10:28.877Z,11.54
2023-01-03T06:11:28.907Z,11.47
2023-01-03T06:12:29.454Z,11.54
2023-01-03T06:13:28.883Z,11.54
2023-01-03T06:14:28.882Z,11.50
2023-01-03T06:15:29.445Z,11.54
2023-01-03T06:16:29.835Z,11.52
2023-01-03T06:17:29.816Z,11.48
2023-01-03T06:18:28.826Z,11.59
2023-01-03T06:19:28.821Z,11.59
2023-01-03T06:20:28.817Z,11.54
2023-01-03T06:21:28.774Z,11.60
2023-01-03T06:22:28.773Z,11.55
2023-01-03T06:23:28.740Z,11.54
2023-01-03T06:24:29.765Z,11.62
2023-01-03T06:25:28.741Z,11.52
2023-01-03T06:26:28.721Z,11.50
2023-01-03T06:27:28.749Z,11.51
2023-01-03T06:28:28.767Z,11.65
2023-01-03T06:29:28.684Z,11.63
2023-01-03T06:30:29.705Z,11.62
2023-01-03T06:31:29.497Z,11.60
2023-01-03T06:32:29.639Z,11.65
2023-01-03T06:33:28.653Z,11.59
2023-01-03T06:34:28.657Z,11.66
2023-01-03T06:35:29.641Z,11.62
2023-01-03T06:36:28.632Z,11.60
2023-01-03T06:37:28.637Z,11.68
2023-01-03T06:38:28.585Z,11.52
2023-01-03T06:39:28.949Z,11.68
2023-01-03T06:40:36.175Z,11.62
2023-01-03T06:41:29.576Z,11.60
2023-01-03T06:42:28.556Z,11.63
2023-01-03T06:43:28.554Z,11.60
2023-01-03T06:44:28.522Z,11.44
2023-01-03T06:45:28.572Z,11.52
2023-01-03T06:46:28.596Z,11.51
2023-01-03T06:47:28.480Z,11.55
2023-01-03T06:48:29.411Z,11.47
2023-01-03T06:49:28.493Z,11.48
2023-01-03T06:50:28.455Z,11.51
2023-01-03T06:51:28.457Z,11.45
2023-01-03T06:52:28.494Z,11.48
2023-01-03T06:53:28.422Z,11.41
2023-01-03T06:54:28.432Z,11.36
2023-01-03T06:55:28.444Z,11.45
2023-01-03T06:56:28.375Z,11.37
2023-01-03T06:57:28.400Z,11.36
2023-01-03T06:58:28.349Z,11.27
2023-01-03T06:59:29.385Z,11.25
2023-01-03T07:00:28.386Z,11.23
2023-01-03T07:01:29.460Z,11.29
2023-01-03T07:02:28.563Z,11.19
2023-01-03T07:03:28.342Z,11.18
2023-01-03T07:04:28.427Z,11.25
2023-01-03T07:05:28.310Z,11.23
2023-01-03T07:06:28.303Z,11.15
2023-01-03T07:07:28.301Z,11.22
2023-01-03T07:08:28.320Z,11.19
2023-01-03T07:09:28.243Z,11.18
2023-01-03T07:10:28.236Z,11.19
2023-01-03T07:11:28.243Z,11.25
2023-01-03T07:12:28.201Z,11.08
2023-01-03T07:13:28.200Z,11.14
2023-01-03T07:14:28.231Z,11.15
2023-01-03T07:15:28.188Z,11.18
2023-01-03T07:16:28.282Z,11.10
2023-01-03T07:17:28.175Z,11.07
2023-01-03T07:18:28.143Z,11.04
2023-01-03T07:19:29.161Z,11.05
2023-01-03T07:20:28.184Z,11.11
2023-01-03T07:21:28.152Z,11.10
2023-01-03T07:22:28.122Z,11.04
2023-01-03T07:23:28.142Z,11.12
2023-01-03T07:24:28.131Z,10.93
2023-01-03T07:25:28.056Z,10.90
2023-01-03T07:26:28.113Z,10.90
2023-01-03T07:27:28.051Z,10.99
2023-01-03T07:28:28.071Z,10.93
2023-01-03T07:29:28.054Z,10.96
2023-01-03T07:30:28.019Z,10.87
2023-01-03T07:31:28.107Z,10.92
2023-01-03T07:32:28.001Z,10.81
2023-01-03T07:33:28.021Z,10.76
2023-01-03T07:34:27.992Z,10.79
2023-01-03T07:35:28.953Z,10.74
2023-01-03T07:36:28.946Z,10.63
2023-01-03T07:37:27.964Z,10.64
2023-01-03T07:38:27.911Z,10.64
2023-01-03T07:39:27.928Z,10.69
2023-01-03T07:40:28.087Z,10.72
2023-01-03T07:41:27.879Z,10.68
2023-01-03T07:42:27.880Z,10.74
2023-01-03T07:43:27.916Z,10.68
2023-01-03T07:44:27.873Z,10.57
2023-01-03T07:45:27.874Z,10.63
2023-01-03T07:46:27.907Z,10.68
2023-01-03T07:47:28.820Z,10.64
2023-01-03T07:48:28.836Z,10.68
2023-01-03T07:49:27.840Z,10.57
2023-01-03T07:50:27.848Z,10.60
2023-01-03T07:51:27.805Z,10.51
2023-01-03T07:52:27.780Z,10.56
2023-01-03T07:53:28.743Z,10.54
2023-01-03T07:54:28.765Z,10.57
2023-01-03T07:55:27.758Z,10.56
2023-01-03T07:56:27.756Z,10.53
2023-01-03T07:57:27.733Z,10.44
2023-01-03T07:58:27.735Z,10.48
2023-01-03T07:59:27.731Z,10.42
2023-01-03T08:00:27.659Z,10.48
2023-01-03T08:01:27.806Z,10.51
2023-01-03T08:02:27.857Z,10.48
2023-01-03T08:03:27.686Z,10.49
2023-01-03T08:04:27.715Z,10.54
2023-01-03T08:05:27.655Z,10.48
2023-01-03T08:06:27.629Z,10.49
2023-01-03T08:07:28.593Z,10.41
2023-01-03T08:08:27.587Z,10.42
2023-01-03T08:09:27.591Z,10.26
2023-01-03T08:10:27.595Z,10.33
2023-01-03T08:11:27.556Z,10.33
2023-01-03T08:12:27.632Z,10.31
2023-01-03T08:13:27.576Z,10.33
2023-01-03T08:14:28.521Z,10.19
2023-01-03T08:15:27.547Z,10.22
2023-01-03T08:16:27.573Z,10.31
2023-01-03T08:17:28.495Z,10.23
2023-01-03T08:18:27.610Z,10.25
2023-01-03T08:19:27.526Z,10.17
2023-01-03T08:20:28.456Z,10.12
2023-01-03T08:21:28.793Z,10.13
2023-01-03T08:22:27.461Z,10.17
2023-01-03T08:23:28.436Z,10.26
2023-01-03T08:24:27.435Z,10.28
2023-01-03T08:25:27.430Z,10.30
2023-01-03T08:26:27.422Z,10.33
2023-01-03T08:27:27.396Z,10.31
2023-01-03T08:28:27.391Z,10.35
2023-01-03T08:29:27.423Z,10.40
2023-01-03T08:30:27.362Z,10.48
2023-01-03T08:31:27.419Z,10.54
2023-01-03T08:32:28.356Z,10.49
2023-01-03T08:33:28.322Z,10.54
2023-01-03T08:34:30.131Z,10.61
2023-01-03T08:35:27.303Z,10.67
2023-01-03T08:36:27.294Z,10.67
2023-01-03T08:37:28.280Z,10.64
2023-01-03T08:38:27.325Z,10.69
2023-01-03T08:39:27.275Z,10.69
2023-01-03T08:40:27.275Z,10.72
2023-01-03T08:41:27.234Z,10.68
2023-01-03T08:42:28.229Z,10.68
2023-01-03T08:43:27.235Z,10.75
2023-01-03T08:44:27.250Z,10.72
2023-01-03T08:45:27.228Z,10.71
2023-01-03T08:46:27.247Z,10.71
2023-01-03T08:47:28.160Z,10.72
2023-01-03T08:48:27.152Z,10.75
2023-01-03T08:49:27.143Z,10.60
2023-01-03T08:50:27.149Z,10.59
2023-01-03T08:51:27.182Z,10.53
2023-01-03T08:52:33.112Z,10.56
2023-01-03T08:53:28.089Z,10.48
2023-01-03T08:54:27.113Z,10.54
2023-01-03T08:55:28.096Z,10.61
2023-01-03T08:56:27.073Z,10.57
2023-01-03T08:57:27.855Z,10.56
2023-01-03T08:58:27.044Z,10.60
2023-01-03T08:59:27.038Z,10.71
2023-01-03T09:00:27.050Z,10.69
2023-01-03T09:01:27.247Z,10.67
2023-01-03T09:02:27.242Z,10.76
2023-01-03T09:03:27.166Z,10.78
2023-01-03T09:04:27.996Z,10.72
2023-01-03T09:05:26.972Z,10.82
2023-01-03T09:06:27.014Z,10.74
2023-01-03T09:07:26.958Z,10.78
2023-01-03T09:08:27.936Z,10.72
2023-01-03T09:09:26.929Z,10.74
2023-01-03T09:10:26.960Z,10.76
2023-01-03T09:11:26.932Z,10.79
2023-01-03T09:12:26.901Z,10.86
2023-01-03T09:13:26.888Z,10.79
2023-01-03T09:14:27.868Z,10.89
2023-01-03T09:15:26.892Z,10.94
2023-01-03T09:16:26.976Z,10.87
2023-01-03T09:17:26.867Z,10.93
2023-01-03T09:18:26.818Z,10.92
2023-01-03T09:19:26.872Z,11.00
2023-01-03T09:20:26.791Z,11.04
2023-01-03T09:21:26.828Z,11.14
2023-01-03T09:22:26.789Z,11.17
2023-01-03T09:23:26.773Z,11.18
2023-01-03T09:24:27.775Z,11.14
2023-01-03T09:25:29.278Z,11.18
2023-01-03T09:26:27.800Z,11.17
2023-01-03T09:27:26.786Z,11.18
2023-01-03T09:28:26.709Z,11.22
2023-01-03T09:29:27.740Z,11.23
2023-01-03T09:30:26.727Z,11.26
2023-01-03T09:31:26.791Z,11.25
2023-01-03T09:32:26.715Z,11.22
2023-01-03T09:33:26.711Z,11.19
2023-01-03T09:34:27.644Z,11.02
2023-01-03T09:35:26.657Z,11.23
2023-01-03T09:36:26.687Z,11.23
2023-01-03T09:37:26.624Z,11.25
2023-01-03T09:38:26.604Z,11.29
2023-01-03T09:39:26.612Z,11.33
2023-01-03T09:40:27.601Z,11.29
2023-01-03T09:41:26.565Z,11.22
2023-01-03T09:42:27.575Z,11.30
2023-01-03T09:43:27.541Z,11.30
2023-01-03T09:44:26.579Z,11.30
2023-01-03T09:45:27.527Z,11.30
2023-01-03T09:46:27.557Z,11.30
2023-01-03T09:47:27.505Z,11.43
2023-01-03T09:48:26.516Z,11.45
2023-01-03T09:49:26.540Z,11.45
2023-01-03T09:50:35.181Z,11.52
2023-01-03T09:51:30.169Z,11.48
2023-01-03T09:52:26.470Z,11.51
2023-01-03T09:53:26.471Z,11.59
2023-01-03T09:54:26.446Z,11.52
2023-01-03T09:55:27.429Z,11.37
2023-01-03T09:56:26.461Z,11.50
2023-01-03T09:57:28.571Z,11.44
2023-01-03T09:58:26.380Z,11.52
2023-01-03T09:59:26.385Z,11.62
2023-01-03T10:00:27.349Z,11.65
2023-01-03T10:01:26.473Z,11.60
2023-01-03T10:02:26.462Z,11.63
2023-01-03T10:03:27.405Z,11.60
2023-01-03T10:04:26.390Z,11.60
2023-01-03T10:05:26.318Z,11.55
2023-01-03T10:06:26.307Z,11.51
2023-01-03T10:07:27.342Z,11.69
2023-01-03T10:08:26.323Z,11.65
2023-01-03T10:09:26.289Z,11.78
2023-01-03T10:10:26.253Z,11.72
2023-01-03T10:11:26.879Z,11.69
2023-01-03T10:12:26.266Z,11.65
2023-01-03T10:13:27.273Z,11.78
2023-01-03T10:14:27.197Z,11.84
2023-01-03T10:15:27.223Z,11.83
2023-01-03T10:16:26.336Z,11.86
2023-01-03T10:17:26.190Z,11.95
2023-01-03T10:18:26.186Z,11.95
2023-01-03T10:19:27.229Z,11.91
2023-01-03T10:20:28.065Z,11.88
2023-01-03T10:21:26.140Z,11.80
2023-01-03T10:22:26.155Z,11.83
2023-01-03T10:23:26.120Z,11.84
2023-01-03T10:24:26.157Z,11.97
2023-01-03T10:25:26.115Z,11.97
2023-01-03T10:26:32.596Z,12.10
2023-01-03T10:27:27.072Z,12.04
2023-01-03T10:28:26.112Z,12.09
2023-01-03T10:29:27.033Z,12.06
2023-01-03T10:30:26.064Z,12.03
2023-01-03T10:31:26.111Z,11.99
2023-01-03T10:32:26.015Z,12.06
2023-01-03T10:33:27.021Z,12.02
2023-01-03T10:34:25.998Z,12.03
2023-01-03T10:35:26.021Z,12.03
2023-01-03T10:36:26.021Z,12.06
2023-01-03T10:37:25.965Z,12.10
2023-01-03T10:38:25.991Z,12.21
2023-01-03T10:39:25.918Z,12.17
2023-01-03T10:40:25.934Z,12.10
2023-01-03T10:41:25.933Z,12.21
2023-01-03T10:42:25.949Z,12.27
2023-01-03T10:43:25.967Z,12.22
2023-01-03T10:44:25.909Z,12.18
2023-01-03T10:45:27.019Z,12.29
2023-01-03T10:46:27.037Z,12.25
2023-01-03T10:47:26.804Z,12.15
2023-01-03T10:48:26.807Z,12.31
2023-01-03T10:49:27.897Z,12.29
2023-01-03T10:50:25.924Z,12.06
2023-01-03T10:51:25.797Z,12.06
2023-01-03T10:52:26.790Z,12.04
2023-01-03T10:53:25.807Z,12.21
2023-01-03T10:55:15.139Z,12.18
2023-01-03T10:56:16.106Z,12.31
2023-01-03T10:57:15.151Z,12.37
2023-01-03T10:58:15.107Z,12.42
2023-01-03T10:59:16.101Z,12.37
2023-01-03T11:00:16.056Z,12.37
2023-01-03T11:01:15.179Z,12.37
2023-01-03T11:02:15.521Z,12.35
2023-01-03T11:03:16.246Z,12.31
2023-01-03T11:04:15.089Z,12.47
2023-01-03T11:05:15.995Z,12.47
2023-01-03T11:06:15.042Z,12.39
2023-01-03T11:07:15.995Z,12.36
2023-01-03T11:08:14.996Z,12.46
2023-01-03T11:09:14.968Z,12.45
2023-01-03T11:10:14.970Z,12.42
2023-01-03T11:11:15.709Z,12.37
2023-01-03T11:12:14.950Z,12.39
2023-01-03T11:13:14.916Z,12.46
2023-01-03T11:14:14.934Z,12.47
2023-01-03T11:15:14.903Z,12.43
2023-01-03T11:16:15.949Z,12.60
2023-01-03T11:17:15.049Z,12.53
2023-01-03T11:18:14.864Z,12.54
2023-01-03T11:19:14.878Z,12.57
2023-01-03T11:20:14.843Z,12.54
2023-01-03T11:21:14.847Z,12.61
2023-01-03T11:22:14.850Z,12.62
2023-01-03T11:23:14.814Z,12.54
2023-01-03T11:24:15.826Z,12.50
2023-01-03T11:25:14.780Z,12.60
2023-01-03T11:26:14.774Z,12.54
2023-01-03T11:27:15.790Z,12.50
2023-01-03T11:28:16.601Z,12.60
2023-01-03T11:29:14.744Z,12.42
2023-01-03T11:30:14.740Z,12.32
2023-01-03T11:31:14.728Z,12.37
2023-01-03T11:32:14.767Z,12.27
2023-01-03T11:33:14.721Z,12.25
2023-01-03T11:34:14.698Z,12.37
2023-01-03T11:35:23.939Z,12.24
2023-01-03T11:36:15.682Z,12.20
2023-01-03T11:37:14.668Z,12.22
2023-01-03T11:38:15.647Z,12.06
2023-01-03T11:39:18.010Z,12.17
2023-01-03T11:40:15.729Z,11.83
2023-01-03T11:41:14.599Z,11.69
2023-01-03T11:42:14.595Z,11.77
2023-01-03T11:43:14.617Z,11.80
2023-01-03T11:44:15.586Z,11.86
2023-01-03T11:45:14.585Z,11.94
2023-01-03T11:46:14.592Z,11.94
2023-01-03T11:47:15.212Z,11.97
2023-01-03T11:48:14.529Z,12.02
2023-01-03T11:49:14.533Z,11.94
2023-01-03T11:50:14.575Z,12.09
2023-01-03T11:51:14.519Z,12.00
2023-01-03T11:52:15.512Z,11.97
2023-01-03T11:53:14.479Z,12.10
2023-01-03T11:54:14.468Z,12.02
2023-01-03T11:55:14.467Z,12.03
2023-01-03T11:56:15.457Z,12.13
2023-01-03T11:57:14.449Z,12.20
2023-01-03T11:58:15.440Z,12.32
2023-01-03T11:59:14.409Z,12.20
2023-01-03T12:00:15.487Z,12.25
2023-01-03T12:01:14.417Z,12.32
2023-01-03T12:02:14.614Z,12.42
2023-01-03T12:03:15.529Z,12.40
2023-01-03T12:04:14.399Z,12.43
2023-01-03T12:05:14.343Z,12.47
2023-01-03T12:06:15.338Z,12.50
2023-01-03T12:07:46.276Z,12.57
2023-01-03T12:08:15.302Z,12.54
2023-01-03T12:09:14.386Z,12.60
2023-01-03T12:10:14.352Z,12.62
2023-01-03T12:11:15.314Z,12.68
2023-01-03T12:12:14.287Z,12.72
2023-01-03T12:13:14.260Z,12.75
2023-01-03T12:14:14.268Z,12.62
2023-01-03T12:15:14.256Z,12.73
2023-01-03T12:16:14.260Z,12.73
2023-01-03T12:17:15.237Z,12.60
2023-01-03T12:18:14.183Z,12.49
2023-01-03T12:19:14.175Z,12.45
2023-01-03T12:20:14.190Z,12.42
2023-01-03T12:21:15.218Z,12.40
2023-01-03T12:22:14.172Z,12.50
2023-01-03T12:23:14.149Z,12.46
2023-01-03T12:24:15.166Z,12.49
2023-01-03T12:25:14.176Z,12.47
2023-01-03T12:26:15.112Z,12.49
2023-01-03T12:27:14.150Z,12.49
2023-01-03T12:28:14.104Z,12.36
2023-01-03T12:29:14.094Z,12.54
2023-01-03T12:30:14.108Z,12.62
2023-01-03T12:31:15.114Z,12.53
2023-01-03T12:32:14.066Z,12.53
2023-01-03T12:33:15.055Z,12.49
2023-01-03T12:34:14.039Z,12.49
2023-01-03T12:35:13.994Z,12.45
2023-01-03T12:36:15.020Z,12.42
2023-01-03T12:37:13.997Z,12.35
2023-01-03T12:38:13.968Z,12.29
2023-01-03T12:39:14.006Z,12.37
2023-01-03T12:40:14.065Z,12.39
2023-01-03T12:41:14.949Z,12.32
2023-01-03T12:42:13.935Z,12.46
2023-01-03T12:43:13.904Z,12.57
2023-01-03T12:44:13.924Z,12.46
2023-01-03T12:45:13.914Z,12.45
2023-01-03T12:46:13.941Z,12.61
2023-01-03T12:47:13.976Z,12.60
2023-01-03T12:48:14.897Z,12.60
2023-01-03T12:49:13.867Z,12.62
2023-01-03T12:50:14.858Z,12.62
2023-01-03T12:51:13.814Z,12.50
2023-01-03T12:52:17.165Z,12.58
2023-01-03T12:53:13.813Z,12.61